sensor_id;sensor_type;location;lat;lon;timestamp;P1;durP1;ratioP1;P2;durP2;ratioP2
51981;SDS011;37998;53.416;6.730;2023-02-28T00:01:20;10.70;;;2.85;;
51981;SDS011;37998;53.416;6.730;2023-02-28T00:03:47;7.68;;;2.42;;
51981;SDS011;37998;53.416;6.730;2023-02-28T00:06:12;8.48;;;2.45;;
51981;SDS011;37998;53.416;6.730;2023-02-28T00:08:38;7.28;;;2.53;;
51981;SDS011;37998;53.416;6.730;2023-02-28T00:11:05;10.48;;;2.80;;
51981;SDS011;37998;53.416;6.730;2023-02-28T00:13:36;10.73;;;1.92;;
51981;SDS011;37998;53.416;6.730;2023-02-28T00:16:05;7.10;;;2.30;;
51981;SDS011;37998;53.416;6.730;2023-02-28T00:18:33;10.23;;;2.20;;
51981;SDS011;37998;53.416;6.730;2023-02-28T00:20:59;7.88;;;2.58;;
51981;SDS011;37998;53.416;6.730;2023-02-28T00:23:25;6.80;;;2.15;;
51981;SDS011;37998;53.416;6.730;2023-02-28T00:25:51;8.90;;;2.35;;
51981;SDS011;37998;53.416;6.730;2023-02-28T00:28:17;9.00;;;1.98;;
51981;SDS011;37998;53.416;6.730;2023-02-28T00:30:43;7.70;;;2.17;;
51981;SDS011;37998;53.416;6.730;2023-02-28T00:33:09;9.15;;;2.20;;
51981;SDS011;37998;53.416;6.730;2023-02-28T00:35:35;12.13;;;2.00;;
51981;SDS011;37998;53.416;6.730;2023-02-28T00:38:01;6.50;;;1.92;;
51981;SDS011;37998;53.416;6.730;2023-02-28T00:40:27;9.38;;;3.13;;
51981;SDS011;37998;53.416;6.730;2023-02-28T00:42:53;8.85;;;1.88;;
51981;SDS011;37998;53.416;6.730;2023-02-28T00:45:18;7.93;;;2.20;;
51981;SDS011;37998;53.416;6.730;2023-02-28T00:47:44;4.40;;;1.60;;
51981;SDS011;37998;53.416;6.730;2023-02-28T00:50:11;10.55;;;2.22;;
51981;SDS011;37998;53.416;6.730;2023-02-28T00:52:37;11.00;;;1.67;;
51981;SDS011;37998;53.416;6.730;2023-02-28T00:55:03;14.95;;;2.65;;
51981;SDS011;37998;53.416;6.730;2023-02-28T00:57:29;7.20;;;2.05;;
51981;SDS011;37998;53.416;6.730;2023-02-28T00:59:55;9.80;;;2.40;;
51981;SDS011;37998;53.416;6.730;2023-02-28T01:02:21;5.70;;;1.77;;
51981;SDS011;37998;53.416;6.730;2023-02-28T01:04:48;9.30;;;1.63;;
51981;SDS011;37998;53.416;6.730;2023-02-28T01:07:14;6.50;;;1.83;;
51981;SDS011;37998;53.416;6.730;2023-02-28T01:09:40;9.18;;;2.25;;
51981;SDS011;37998;53.416;6.730;2023-02-28T01:12:07;9.68;;;1.90;;
51981;SDS011;37998;53.416;6.730;2023-02-28T01:14:33;12.73;;;1.90;;
51981;SDS011;37998;53.416;6.730;2023-02-28T01:16:59;7.18;;;1.90;;
51981;SDS011;37998;53.416;6.730;2023-02-28T01:19:25;11.80;;;2.38;;
51981;SDS011;37998;53.416;6.730;2023-02-28T01:21:51;8.23;;;1.92;;
51981;SDS011;37998;53.416;6.730;2023-02-28T01:24:17;10.80;;;1.85;;
51981;SDS011;37998;53.416;6.730;2023-02-28T01:26:43;6.60;;;1.83;;
51981;SDS011;37998;53.416;6.730;2023-02-28T01:29:08;10.48;;;2.97;;
51981;SDS011;37998;53.416;6.730;2023-02-28T01:31:34;11.32;;;1.92;;
51981;SDS011;37998;53.416;6.730;2023-02-28T01:34:00;7.45;;;1.70;;
51981;SDS011;37998;53.416;6.730;2023-02-28T01:36:26;6.90;;;2.25;;
51981;SDS011;37998;53.416;6.730;2023-02-28T01:38:52;6.47;;;1.67;;
51981;SDS011;37998;53.416;6.730;2023-02-28T01:41:19;8.93;;;2.08;;
51981;SDS011;37998;53.416;6.730;2023-02-28T01:46:13;8.63;;;1.42;;
51981;SDS011;37998;53.416;6.730;2023-02-28T01:48:46;10.65;;;1.63;;
51981;SDS011;37998;53.416;6.730;2023-02-28T01:51:21;6.80;;;1.95;;
51981;SDS011;37998;53.416;6.730;2023-02-28T01:54:16;8.23;;;1.33;;
51981;SDS011;37998;53.416;6.730;2023-02-28T01:56:49;7.82;;;1.65;;
51981;SDS011;37998;53.416;6.730;2023-02-28T01:59:24;11.45;;;2.10;;
51981;SDS011;37998;53.416;6.730;2023-02-28T02:01:54;5.63;;;1.60;;
51981;SDS011;37998;53.416;6.730;2023-02-28T02:04:21;5.72;;;1.45;;
51981;SDS011;37998;53.416;6.730;2023-02-28T02:06:51;5.35;;;1.25;;
51981;SDS011;37998;53.416;6.730;2023-02-28T02:09:17;8.40;;;1.83;;
51981;SDS011;37998;53.416;6.730;2023-02-28T02:11:43;12.80;;;1.77;;
51981;SDS011;37998;53.416;6.730;2023-02-28T02:14:27;5.72;;;1.55;;
51981;SDS011;37998;53.416;6.730;2023-02-28T02:20:01;10.07;;;2.00;;
51981;SDS011;37998;53.416;6.730;2023-02-28T02:41:47;7.13;;;1.50;;
51981;SDS011;37998;53.416;6.730;2023-02-28T02:44:19;4.40;;;1.50;;
51981;SDS011;37998;53.416;6.730;2023-02-28T02:46:58;12.73;;;1.52;;
51981;SDS011;37998;53.416;6.730;2023-02-28T02:49:34;11.93;;;1.80;;
51981;SDS011;37998;53.416;6.730;2023-02-28T02:52:03;4.35;;;2.05;;
51981;SDS011;37998;53.416;6.730;2023-02-28T02:54:41;12.80;;;1.73;;
51981;SDS011;37998;53.416;6.730;2023-02-28T02:57:13;11.45;;;2.45;;
51981;SDS011;37998;53.416;6.730;2023-02-28T02:59:47;12.60;;;1.70;;
51981;SDS011;37998;53.416;6.730;2023-02-28T03:02:16;6.53;;;1.65;;
51981;SDS011;37998;53.416;6.730;2023-02-28T03:04:45;10.50;;;2.28;;
51981;SDS011;37998;53.416;6.730;2023-02-28T03:07:16;8.77;;;1.73;;
51981;SDS011;37998;53.416;6.730;2023-02-28T03:09:49;11.05;;;1.88;;
51981;SDS011;37998;53.416;6.730;2023-02-28T03:12:19;10.52;;;2.03;;
51981;SDS011;37998;53.416;6.730;2023-02-28T03:25:49;6.57;;;1.88;;
51981;SDS011;37998;53.416;6.730;2023-02-28T03:28:58;9.60;;;2.03;;
51981;SDS011;37998;53.416;6.730;2023-02-28T03:34:20;11.68;;;2.30;;
51981;SDS011;37998;53.416;6.730;2023-02-28T03:36:55;6.55;;;1.40;;
51981;SDS011;37998;53.416;6.730;2023-02-28T03:44:26;5.93;;;1.90;;
51981;SDS011;37998;53.416;6.730;2023-02-28T03:47:01;13.50;;;2.25;;
51981;SDS011;37998;53.416;6.730;2023-02-28T03:49:32;6.32;;;1.98;;
51981;SDS011;37998;53.416;6.730;2023-02-28T03:52:09;11.30;;;2.42;;
51981;SDS011;37998;53.416;6.730;2023-02-28T03:54:36;6.78;;;2.30;;
51981;SDS011;37998;53.416;6.730;2023-02-28T03:59:50;15.60;;;2.33;;
51981;SDS011;37998;53.416;6.730;2023-02-28T04:02:24;7.68;;;2.33;;
51981;SDS011;37998;53.416;6.730;2023-02-28T04:04:50;11.93;;;2.50;;
51981;SDS011;37998;53.416;6.730;2023-02-28T04:07:16;8.35;;;1.95;;
51981;SDS011;37998;53.416;6.730;2023-02-28T04:09:42;6.50;;;4.72;;
51981;SDS011;37998;53.416;6.730;2023-02-28T04:12:08;8.48;;;6.15;;
51981;SDS011;37998;53.416;6.730;2023-02-28T04:14:34;12.55;;;8.13;;
51981;SDS011;37998;53.416;6.730;2023-02-28T04:17:00;10.63;;;9.35;;
51981;SDS011;37998;53.416;6.730;2023-02-28T04:19:25;15.40;;;10.55;;
51981;SDS011;37998;53.416;6.730;2023-02-28T04:21:51;14.23;;;11.07;;
51981;SDS011;37998;53.416;6.730;2023-02-28T04:24:19;19.67;;;13.27;;
51981;SDS011;37998;53.416;6.730;2023-02-28T04:26:47;22.00;;;12.77;;
51981;SDS011;37998;53.416;6.730;2023-02-28T04:29:18;17.20;;;13.20;;
51981;SDS011;37998;53.416;6.730;2023-02-28T04:31:46;18.40;;;12.57;;
51981;SDS011;37998;53.416;6.730;2023-02-28T04:34:12;15.18;;;11.98;;
51981;SDS011;37998;53.416;6.730;2023-02-28T04:36:37;16.10;;;11.88;;
51981;SDS011;37998;53.416;6.730;2023-02-28T04:39:03;16.92;;;12.45;;
51981;SDS011;37998;53.416;6.730;2023-02-28T04:41:29;15.80;;;12.13;;
51981;SDS011;37998;53.416;6.730;2023-02-28T04:43:55;17.10;;;11.90;;
51981;SDS011;37998;53.416;6.730;2023-02-28T04:46:21;16.98;;;11.65;;
51981;SDS011;37998;53.416;6.730;2023-02-28T04:48:48;15.35;;;11.32;;
51981;SDS011;37998;53.416;6.730;2023-02-28T04:51:14;15.07;;;10.82;;
51981;SDS011;37998;53.416;6.730;2023-02-28T04:53:42;15.60;;;10.60;;
51981;SDS011;37998;53.416;6.730;2023-02-28T04:56:10;14.07;;;10.07;;
51981;SDS011;37998;53.416;6.730;2023-02-28T04:58:37;11.80;;;9.05;;
51981;SDS011;37998;53.416;6.730;2023-02-28T05:01:16;13.73;;;10.43;;
51981;SDS011;37998;53.416;6.730;2023-02-28T05:03:52;12.60;;;9.90;;
51981;SDS011;37998;53.416;6.730;2023-02-28T05:06:20;9.45;;;8.45;;
51981;SDS011;37998;53.416;6.730;2023-02-28T05:08:48;12.05;;;9.32;;
51981;SDS011;37998;53.416;6.730;2023-02-28T05:11:18;9.68;;;8.50;;
51981;SDS011;37998;53.416;6.730;2023-02-28T05:13:46;8.75;;;7.85;;
51981;SDS011;37998;53.416;6.730;2023-02-28T05:16:13;11.00;;;8.02;;
51981;SDS011;37998;53.416;6.730;2023-02-28T05:18:39;10.68;;;8.35;;
51981;SDS011;37998;53.416;6.730;2023-02-28T05:21:05;10.15;;;7.82;;
51981;SDS011;37998;53.416;6.730;2023-02-28T05:23:42;10.38;;;7.57;;
51981;SDS011;37998;53.416;6.730;2023-02-28T05:26:08;12.25;;;7.90;;
51981;SDS011;37998;53.416;6.730;2023-02-28T05:28:34;9.70;;;7.50;;
51981;SDS011;37998;53.416;6.730;2023-02-28T05:30:59;10.57;;;7.95;;
51981;SDS011;37998;53.416;6.730;2023-02-28T05:33:25;10.30;;;7.65;;
51981;SDS011;37998;53.416;6.730;2023-02-28T05:35:51;9.55;;;7.35;;
51981;SDS011;37998;53.416;6.730;2023-02-28T05:38:17;8.38;;;6.80;;
51981;SDS011;37998;53.416;6.730;2023-02-28T05:40:42;10.27;;;7.53;;
51981;SDS011;37998;53.416;6.730;2023-02-28T05:43:09;10.43;;;7.18;;
51981;SDS011;37998;53.416;6.730;2023-02-28T05:45:35;7.68;;;6.15;;
51981;SDS011;37998;53.416;6.730;2023-02-28T05:48:01;8.45;;;6.80;;
51981;SDS011;37998;53.416;6.730;2023-02-28T05:50:26;7.57;;;5.95;;
51981;SDS011;37998;53.416;6.730;2023-02-28T05:52:52;8.52;;;6.70;;
51981;SDS011;37998;53.416;6.730;2023-02-28T05:55:18;7.85;;;5.95;;
51981;SDS011;37998;53.416;6.730;2023-02-28T05:57:44;6.45;;;5.72;;
51981;SDS011;37998;53.416;6.730;2023-02-28T06:00:10;7.38;;;6.00;;
51981;SDS011;37998;53.416;6.730;2023-02-28T06:02:38;8.77;;;6.35;;
51981;SDS011;37998;53.416;6.730;2023-02-28T06:05:05;10.05;;;5.93;;
51981;SDS011;37998;53.416;6.730;2023-02-28T06:07:34;7.10;;;5.93;;
51981;SDS011;37998;53.416;6.730;2023-02-28T06:09:59;6.85;;;5.72;;
51981;SDS011;37998;53.416;6.730;2023-02-28T06:12:25;6.38;;;5.03;;
51981;SDS011;37998;53.416;6.730;2023-02-28T06:14:51;6.30;;;5.30;;
51981;SDS011;37998;53.416;6.730;2023-02-28T06:17:17;6.00;;;5.20;;
51981;SDS011;37998;53.416;6.730;2023-02-28T06:19:42;6.50;;;5.75;;
51981;SDS011;37998;53.416;6.730;2023-02-28T06:22:08;5.72;;;4.97;;
51981;SDS011;37998;53.416;6.730;2023-02-28T06:24:34;5.32;;;4.70;;
51981;SDS011;37998;53.416;6.730;2023-02-28T06:26:59;6.68;;;5.13;;
51981;SDS011;37998;53.416;6.730;2023-02-28T06:29:30;6.00;;;5.15;;
51981;SDS011;37998;53.416;6.730;2023-02-28T06:31:59;6.25;;;4.82;;
51981;SDS011;37998;53.416;6.730;2023-02-28T06:34:24;6.05;;;5.40;;
51981;SDS011;37998;53.416;6.730;2023-02-28T06:36:50;7.70;;;5.78;;
51981;SDS011;37998;53.416;6.730;2023-02-28T06:39:17;9.02;;;5.93;;
51981;SDS011;37998;53.416;6.730;2023-02-28T06:41:43;6.68;;;5.88;;
51981;SDS011;37998;53.416;6.730;2023-02-28T06:44:14;6.70;;;6.00;;
51981;SDS011;37998;53.416;6.730;2023-02-28T06:46:41;6.88;;;6.10;;
51981;SDS011;37998;53.416;6.730;2023-02-28T06:49:09;7.30;;;6.30;;
51981;SDS011;37998;53.416;6.730;2023-02-28T06:51:36;10.25;;;6.60;;
51981;SDS011;37998;53.416;6.730;2023-02-28T06:54:03;8.43;;;6.70;;
51981;SDS011;37998;53.416;6.730;2023-02-28T06:56:30;11.43;;;7.10;;
51981;SDS011;37998;53.416;6.730;2023-02-28T06:58:55;9.38;;;6.70;;
51981;SDS011;37998;53.416;6.730;2023-02-28T07:01:21;8.45;;;6.78;;
51981;SDS011;37998;53.416;6.730;2023-02-28T07:03:49;11.15;;;8.25;;
51981;SDS011;37998;53.416;6.730;2023-02-28T07:06:18;11.02;;;7.60;;
51981;SDS011;37998;53.416;6.730;2023-02-28T07:08:48;10.57;;;7.10;;
51981;SDS011;37998;53.416;6.730;2023-02-28T07:11:14;8.68;;;7.60;;
51981;SDS011;37998;53.416;6.730;2023-02-28T07:13:40;8.50;;;7.30;;
51981;SDS011;37998;53.416;6.730;2023-02-28T07:16:07;10.30;;;8.30;;
51981;SDS011;37998;53.416;6.730;2023-02-28T07:18:35;11.43;;;7.75;;
51981;SDS011;37998;53.416;6.730;2023-02-28T07:21:02;12.00;;;7.93;;
51981;SDS011;37998;53.416;6.730;2023-02-28T07:23:29;9.63;;;7.85;;
51981;SDS011;37998;53.416;6.730;2023-02-28T07:25:55;13.02;;;10.27;;
51981;SDS011;37998;53.416;6.730;2023-02-28T07:28:21;19.15;;;17.13;;
51981;SDS011;37998;53.416;6.730;2023-02-28T07:30:47;10.48;;;9.35;;
51981;SDS011;37998;53.416;6.730;2023-02-28T07:33:13;13.60;;;12.07;;
51981;SDS011;37998;53.416;6.730;2023-02-28T07:35:39;14.00;;;11.20;;
51981;SDS011;37998;53.416;6.730;2023-02-28T07:38:05;12.38;;;9.75;;
51981;SDS011;37998;53.416;6.730;2023-02-28T07:40:32;16.08;;;9.40;;
51981;SDS011;37998;53.416;6.730;2023-02-28T07:42:59;13.65;;;11.57;;
51981;SDS011;37998;53.416;6.730;2023-02-28T07:45:25;14.27;;;10.07;;
51981;SDS011;37998;53.416;6.730;2023-02-28T07:47:53;17.10;;;11.82;;
51981;SDS011;37998;53.416;6.730;2023-02-28T07:50:20;15.73;;;11.40;;
51981;SDS011;37998;53.416;6.730;2023-02-28T07:52:49;13.38;;;10.80;;
51981;SDS011;37998;53.416;6.730;2023-02-28T07:55:15;16.33;;;11.65;;
51981;SDS011;37998;53.416;6.730;2023-02-28T07:57:41;14.55;;;11.85;;
51981;SDS011;37998;53.416;6.730;2023-02-28T08:00:08;16.48;;;12.23;;
51981;SDS011;37998;53.416;6.730;2023-02-28T08:02:35;15.10;;;11.60;;
51981;SDS011;37998;53.416;6.730;2023-02-28T08:05:01;14.60;;;11.18;;
51981;SDS011;37998;53.416;6.730;2023-02-28T08:07:27;14.07;;;11.18;;
51981;SDS011;37998;53.416;6.730;2023-02-28T08:09:53;16.17;;;11.82;;
51981;SDS011;37998;53.416;6.730;2023-02-28T08:12:19;15.00;;;11.23;;
51981;SDS011;37998;53.416;6.730;2023-02-28T08:14:45;13.90;;;11.20;;
51981;SDS011;37998;53.416;6.730;2023-02-28T08:17:11;15.20;;;11.60;;
51981;SDS011;37998;53.416;6.730;2023-02-28T08:19:37;15.48;;;11.73;;
51981;SDS011;37998;53.416;6.730;2023-02-28T08:22:02;13.95;;;11.13;;
51981;SDS011;37998;53.416;6.730;2023-02-28T08:24:28;13.20;;;10.75;;
51981;SDS011;37998;53.416;6.730;2023-02-28T08:26:54;14.40;;;10.85;;
51981;SDS011;37998;53.416;6.730;2023-02-28T08:29:20;14.15;;;12.45;;
51981;SDS011;37998;53.416;6.730;2023-02-28T08:31:46;15.32;;;11.43;;
51981;SDS011;37998;53.416;6.730;2023-02-28T08:34:13;15.18;;;11.45;;
51981;SDS011;37998;53.416;6.730;2023-02-28T08:36:39;12.55;;;10.35;;
51981;SDS011;37998;53.416;6.730;2023-02-28T08:39:06;13.63;;;11.15;;
51981;SDS011;37998;53.416;6.730;2023-02-28T08:41:32;15.50;;;10.68;;
51981;SDS011;37998;53.416;6.730;2023-02-28T08:43:58;17.20;;;10.70;;
51981;SDS011;37998;53.416;6.730;2023-02-28T08:46:25;15.32;;;10.20;;
51981;SDS011;37998;53.416;6.730;2023-02-28T08:48:54;15.50;;;10.05;;
51981;SDS011;37998;53.416;6.730;2023-02-28T08:51:21;12.82;;;9.65;;
51981;SDS011;37998;53.416;6.730;2023-02-28T08:54:00;12.77;;;9.60;;
51981;SDS011;37998;53.416;6.730;2023-02-28T08:56:27;15.43;;;10.90;;
51981;SDS011;37998;53.416;6.730;2023-02-28T08:58:54;14.27;;;10.27;;
51981;SDS011;37998;53.416;6.730;2023-02-28T09:01:23;13.48;;;10.20;;
51981;SDS011;37998;53.416;6.730;2023-02-28T09:03:50;12.80;;;9.98;;
51981;SDS011;37998;53.416;6.730;2023-02-28T09:06:17;11.70;;;9.63;;
51981;SDS011;37998;53.416;6.730;2023-02-28T09:08:44;12.57;;;9.27;;
51981;SDS011;37998;53.416;6.730;2023-02-28T09:11:10;11.20;;;8.88;;
51981;SDS011;37998;53.416;6.730;2023-02-28T09:13:36;11.95;;;8.35;;
51981;SDS011;37998;53.416;6.730;2023-02-28T09:16:04;12.30;;;8.18;;
51981;SDS011;37998;53.416;6.730;2023-02-28T09:18:31;11.70;;;8.68;;
51981;SDS011;37998;53.416;6.730;2023-02-28T09:20:58;11.38;;;8.15;;
51981;SDS011;37998;53.416;6.730;2023-02-28T09:23:24;10.55;;;8.20;;
51981;SDS011;37998;53.416;6.730;2023-02-28T09:25:50;12.43;;;7.95;;
51981;SDS011;37998;53.416;6.730;2023-02-28T09:28:17;11.38;;;8.07;;
51981;SDS011;37998;53.416;6.730;2023-02-28T09:30:44;10.95;;;8.00;;
51981;SDS011;37998;53.416;6.730;2023-02-28T09:33:11;10.43;;;8.77;;
51981;SDS011;37998;53.416;6.730;2023-02-28T09:35:37;9.70;;;8.35;;
51981;SDS011;37998;53.416;6.730;2023-02-28T09:38:03;15.55;;;8.95;;
51981;SDS011;37998;53.416;6.730;2023-02-28T09:40:30;12.48;;;8.82;;
51981;SDS011;37998;53.416;6.730;2023-02-28T09:42:56;15.40;;;9.40;;
51981;SDS011;37998;53.416;6.730;2023-02-28T09:48:03;12.18;;;8.73;;
51981;SDS011;37998;53.416;6.730;2023-02-28T09:50:39;12.23;;;8.70;;
51981;SDS011;37998;53.416;6.730;2023-02-28T09:55:59;12.68;;;9.05;;
51981;SDS011;37998;53.416;6.730;2023-02-28T09:58:47;13.20;;;9.50;;
51981;SDS011;37998;53.416;6.730;2023-02-28T10:01:50;11.70;;;9.55;;
51981;SDS011;37998;53.416;6.730;2023-02-28T10:04:51;12.43;;;8.95;;
51981;SDS011;37998;53.416;6.730;2023-02-28T10:13:17;12.40;;;9.60;;
51981;SDS011;37998;53.416;6.730;2023-02-28T10:15:52;14.73;;;9.60;;
51981;SDS011;37998;53.416;6.730;2023-02-28T10:18:23;12.90;;;8.82;;
51981;SDS011;37998;53.416;6.730;2023-02-28T10:20:52;13.45;;;9.10;;
51981;SDS011;37998;53.416;6.730;2023-02-28T10:23:38;13.48;;;8.73;;
51981;SDS011;37998;53.416;6.730;2023-02-28T10:26:14;10.82;;;8.27;;
51981;SDS011;37998;53.416;6.730;2023-02-28T10:28:41;14.85;;;8.50;;
51981;SDS011;37998;53.416;6.730;2023-02-28T10:31:11;12.00;;;8.30;;
51981;SDS011;37998;53.416;6.730;2023-02-28T10:33:43;10.15;;;8.00;;
51981;SDS011;37998;53.416;6.730;2023-02-28T10:36:10;8.43;;;7.30;;
51981;SDS011;37998;53.416;6.730;2023-02-28T10:38:42;12.98;;;8.90;;
51981;SDS011;37998;53.416;6.730;2023-02-28T10:43:34;11.85;;;7.60;;
51981;SDS011;37998;53.416;6.730;2023-02-28T10:48:37;9.93;;;7.63;;
51981;SDS011;37998;53.416;6.730;2023-02-28T10:51:03;11.35;;;7.82;;
51981;SDS011;37998;53.416;6.730;2023-02-28T10:53:53;12.95;;;7.60;;
51981;SDS011;37998;53.416;6.730;2023-02-28T10:56:25;10.30;;;6.57;;
51981;SDS011;37998;53.416;6.730;2023-02-28T10:58:52;8.55;;;6.93;;
51981;SDS011;37998;53.416;6.730;2023-02-28T11:04:00;9.93;;;6.53;;
51981;SDS011;37998;53.416;6.730;2023-02-28T11:06:26;9.27;;;6.85;;
51981;SDS011;37998;53.416;6.730;2023-02-28T11:09:38;10.45;;;7.70;;
51981;SDS011;37998;53.416;6.730;2023-02-28T11:11:54;10.93;;;7.50;;
51981;SDS011;37998;53.416;6.730;2023-02-28T11:14:25;12.20;;;7.43;;
51981;SDS011;37998;53.416;6.730;2023-02-28T11:16:53;10.43;;;7.50;;
51981;SDS011;37998;53.416;6.730;2023-02-28T11:19:23;9.75;;;6.82;;
51981;SDS011;37998;53.416;6.730;2023-02-28T11:21:56;11.45;;;7.45;;
51981;SDS011;37998;53.416;6.730;2023-02-28T11:24:25;9.90;;;6.90;;
51981;SDS011;37998;53.416;6.730;2023-02-28T11:26:53;10.85;;;7.53;;
51981;SDS011;37998;53.416;6.730;2023-02-28T11:34:33;9.82;;;7.22;;
51981;SDS011;37998;53.416;6.730;2023-02-28T11:37:00;9.88;;;6.55;;
51981;SDS011;37998;53.416;6.730;2023-02-28T11:39:30;12.98;;;7.25;;
51981;SDS011;37998;53.416;6.730;2023-02-28T11:42:06;12.60;;;8.93;;
51981;SDS011;37998;53.416;6.730;2023-02-28T11:47:14;11.18;;;7.03;;
51981;SDS011;37998;53.416;6.730;2023-02-28T11:52:48;10.65;;;6.95;;
51981;SDS011;37998;53.416;6.730;2023-02-28T11:55:26;12.52;;;7.38;;
51981;SDS011;37998;53.416;6.730;2023-02-28T12:04:01;9.32;;;7.18;;
51981;SDS011;37998;53.416;6.730;2023-02-28T12:15:23;11.05;;;7.07;;
51981;SDS011;37998;53.416;6.730;2023-02-28T12:18:11;11.88;;;7.35;;
51981;SDS011;37998;53.416;6.730;2023-02-28T12:20:50;11.73;;;7.35;;
51981;SDS011;37998;53.416;6.730;2023-02-28T12:23:45;10.38;;;6.70;;
51981;SDS011;37998;53.416;6.730;2023-02-28T12:29:13;8.70;;;6.22;;
51981;SDS011;37998;53.416;6.730;2023-02-28T12:34:51;11.65;;;8.63;;
51981;SDS011;37998;53.416;6.730;2023-02-28T12:37:41;11.70;;;9.05;;
51981;SDS011;37998;53.416;6.730;2023-02-28T12:40:12;13.20;;;9.23;;
51981;SDS011;37998;53.416;6.730;2023-02-28T12:42:44;11.50;;;8.73;;
51981;SDS011;37998;53.416;6.730;2023-02-28T12:47:52;9.90;;;8.27;;
51981;SDS011;37998;53.416;6.730;2023-02-28T12:50:23;12.77;;;9.27;;
51981;SDS011;37998;53.416;6.730;2023-02-28T12:52:52;14.02;;;8.95;;
51981;SDS011;37998;53.416;6.730;2023-02-28T13:09:09;12.02;;;9.57;;
51981;SDS011;37998;53.416;6.730;2023-02-28T13:14:59;15.13;;;9.80;;
51981;SDS011;37998;53.416;6.730;2023-02-28T13:19:35;16.40;;;10.57;;
51981;SDS011;37998;53.416;6.730;2023-02-28T13:27:47;15.90;;;11.25;;
51981;SDS011;37998;53.416;6.730;2023-02-28T13:38:36;14.02;;;9.35;;
51981;SDS011;37998;53.416;6.730;2023-02-28T14:00:05;17.60;;;10.20;;
51981;SDS011;37998;53.416;6.730;2023-02-28T14:05:35;11.93;;;9.27;;
51981;SDS011;37998;53.416;6.730;2023-02-28T14:10:46;15.82;;;10.23;;
51981;SDS011;37998;53.416;6.730;2023-02-28T14:16:14;13.77;;;9.80;;
51981;SDS011;37998;53.416;6.730;2023-02-28T14:18:54;14.63;;;9.55;;
51981;SDS011;37998;53.416;6.730;2023-02-28T14:21:31;12.38;;;9.50;;
51981;SDS011;37998;53.416;6.730;2023-02-28T14:29:33;15.45;;;8.98;;
51981;SDS011;37998;53.416;6.730;2023-02-28T14:37:30;13.25;;;8.88;;
51981;SDS011;37998;53.416;6.730;2023-02-28T14:40:01;13.35;;;8.43;;
51981;SDS011;37998;53.416;6.730;2023-02-28T14:42:30;11.70;;;9.30;;
51981;SDS011;37998;53.416;6.730;2023-02-28T14:45:02;16.00;;;10.75;;
51981;SDS011;37998;53.416;6.730;2023-02-28T14:47:32;13.38;;;9.93;;
51981;SDS011;37998;53.416;6.730;2023-02-28T14:50:00;14.02;;;9.48;;
51981;SDS011;37998;53.416;6.730;2023-02-28T14:52:29;16.13;;;10.00;;
51981;SDS011;37998;53.416;6.730;2023-02-28T14:55:09;14.57;;;9.85;;
51981;SDS011;37998;53.416;6.730;2023-02-28T14:57:41;14.85;;;9.18;;
51981;SDS011;37998;53.416;6.730;2023-02-28T15:00:23;14.52;;;9.35;;
51981;SDS011;37998;53.416;6.730;2023-02-28T15:02:51;12.73;;;9.70;;
51981;SDS011;37998;53.416;6.730;2023-02-28T15:05:37;15.20;;;10.55;;
51981;SDS011;37998;53.416;6.730;2023-02-28T15:08:12;14.32;;;9.32;;
51981;SDS011;37998;53.416;6.730;2023-02-28T15:10:45;17.17;;;10.43;;
51981;SDS011;37998;53.416;6.730;2023-02-28T15:13:20;11.93;;;9.25;;
51981;SDS011;37998;53.416;6.730;2023-02-28T15:15:57;15.20;;;10.02;;
51981;SDS011;37998;53.416;6.730;2023-02-28T15:23:58;13.05;;;9.05;;
51981;SDS011;37998;53.416;6.730;2023-02-28T15:26:31;14.05;;;9.00;;
51981;SDS011;37998;53.416;6.730;2023-02-28T15:29:00;10.57;;;8.38;;
51981;SDS011;37998;53.416;6.730;2023-02-28T15:31:33;12.93;;;8.55;;
51981;SDS011;37998;53.416;6.730;2023-02-28T15:34:05;12.40;;;9.15;;
51981;SDS011;37998;53.416;6.730;2023-02-28T15:36:33;13.38;;;9.30;;
51981;SDS011;37998;53.416;6.730;2023-02-28T15:39:02;11.52;;;9.18;;
51981;SDS011;37998;53.416;6.730;2023-02-28T15:41:43;12.68;;;9.18;;
51981;SDS011;37998;53.416;6.730;2023-02-28T15:47:00;11.50;;;8.85;;
51981;SDS011;37998;53.416;6.730;2023-02-28T15:49:26;10.95;;;9.18;;
51981;SDS011;37998;53.416;6.730;2023-02-28T15:51:53;12.65;;;9.23;;
51981;SDS011;37998;53.416;6.730;2023-02-28T15:54:24;11.90;;;8.90;;
51981;SDS011;37998;53.416;6.730;2023-02-28T15:56:56;12.77;;;9.30;;
51981;SDS011;37998;53.416;6.730;2023-02-28T15:59:27;12.98;;;8.70;;
51981;SDS011;37998;53.416;6.730;2023-02-28T16:05:00;11.82;;;8.45;;
51981;SDS011;37998;53.416;6.730;2023-02-28T16:07:26;12.05;;;8.40;;
51981;SDS011;37998;53.416;6.730;2023-02-28T16:09:52;11.38;;;7.97;;
51981;SDS011;37998;53.416;6.730;2023-02-28T16:12:18;10.63;;;8.23;;
51981;SDS011;37998;53.416;6.730;2023-02-28T16:14:46;11.40;;;8.00;;
51981;SDS011;37998;53.416;6.730;2023-02-28T16:17:19;10.40;;;7.50;;
51981;SDS011;37998;53.416;6.730;2023-02-28T16:19:46;18.63;;;8.82;;
51981;SDS011;37998;53.416;6.730;2023-02-28T16:22:12;10.95;;;7.63;;
51981;SDS011;37998;53.416;6.730;2023-02-28T16:24:38;14.13;;;8.77;;
51981;SDS011;37998;53.416;6.730;2023-02-28T16:27:05;14.40;;;8.75;;
51981;SDS011;37998;53.416;6.730;2023-02-28T16:29:34;9.25;;;7.72;;
51981;SDS011;37998;53.416;6.730;2023-02-28T16:32:03;11.23;;;8.40;;
51981;SDS011;37998;53.416;6.730;2023-02-28T16:34:30;12.90;;;8.38;;
51981;SDS011;37998;53.416;6.730;2023-02-28T16:36:56;16.33;;;8.25;;
51981;SDS011;37998;53.416;6.730;2023-02-28T16:39:23;10.63;;;7.70;;
51981;SDS011;37998;53.416;6.730;2023-02-28T16:41:49;13.15;;;8.52;;
51981;SDS011;37998;53.416;6.730;2023-02-28T16:46:56;12.25;;;8.40;;
51981;SDS011;37998;53.416;6.730;2023-02-28T16:49:22;11.65;;;8.63;;
51981;SDS011;37998;53.416;6.730;2023-02-28T16:51:47;11.48;;;8.32;;
51981;SDS011;37998;53.416;6.730;2023-02-28T16:54:13;12.43;;;8.05;;
51981;SDS011;37998;53.416;6.730;2023-02-28T16:56:43;9.60;;;8.13;;
51981;SDS011;37998;53.416;6.730;2023-02-28T16:59:10;10.30;;;8.48;;
51981;SDS011;37998;53.416;6.730;2023-02-28T17:01:37;10.77;;;7.97;;
51981;SDS011;37998;53.416;6.730;2023-02-28T17:04:03;14.07;;;8.32;;
51981;SDS011;37998;53.416;6.730;2023-02-28T17:06:29;14.57;;;8.13;;
51981;SDS011;37998;53.416;6.730;2023-02-28T17:08:56;13.88;;;9.55;;
51981;SDS011;37998;53.416;6.730;2023-02-28T17:11:23;26.58;;;14.63;;
51981;SDS011;37998;53.416;6.730;2023-02-28T17:13:49;10.48;;;8.30;;
51981;SDS011;37998;53.416;6.730;2023-02-28T17:16:28;10.85;;;8.93;;
51981;SDS011;37998;53.416;6.730;2023-02-28T17:19:03;9.82;;;8.65;;
51981;SDS011;37998;53.416;6.730;2023-02-28T17:21:30;10.48;;;8.93;;
51981;SDS011;37998;53.416;6.730;2023-02-28T17:23:58;10.55;;;8.02;;
51981;SDS011;37998;53.416;6.730;2023-02-28T17:26:24;14.25;;;8.20;;
51981;SDS011;37998;53.416;6.730;2023-02-28T17:28:51;13.05;;;8.85;;
51981;SDS011;37998;53.416;6.730;2023-02-28T17:31:17;12.48;;;8.05;;
51981;SDS011;37998;53.416;6.730;2023-02-28T17:33:43;11.65;;;7.75;;
51981;SDS011;37998;53.416;6.730;2023-02-28T17:36:16;12.00;;;7.57;;
51981;SDS011;37998;53.416;6.730;2023-02-28T17:38:52;7.55;;;6.65;;
51981;SDS011;37998;53.416;6.730;2023-02-28T17:41:20;10.23;;;8.45;;
51981;SDS011;37998;53.416;6.730;2023-02-28T17:43:46;11.25;;;7.47;;
51981;SDS011;37998;53.416;6.730;2023-02-28T17:46:19;10.50;;;7.45;;
51981;SDS011;37998;53.416;6.730;2023-02-28T17:48:49;8.95;;;6.85;;
51981;SDS011;37998;53.416;6.730;2023-02-28T17:51:17;12.18;;;6.97;;
51981;SDS011;37998;53.416;6.730;2023-02-28T17:53:44;9.40;;;7.35;;